Time Latitude Longitude Accuracy (66% radius in meters) Altitude (meters) Speed (km/hour) Bearing (degrees) Battery (%) GPS flag
10:00:27 60.370945 29.556535 8 79.048578338076 0 312.77590942383 86 1 delete
10:00:15 60.370945 29.556535 6 79.623069834008 0 312.77590942383 86 1 delete
10:00:12 60.370945 29.556535 8 79.739096777871 0 312.77590942383 86 1 delete
10:00:03 60.370864 29.556616 8 80.039641427062 0 312.77590942383 86 1 delete
09:59:54 60.370855 29.556633 8 80.169177279978 1.540486574173 297.93795776367 86 1 delete
09:59:51 60.370830 29.556714 8 80.17425124649 0 297.29708862305 86 1 delete
09:59:48 60.370804 29.556787 8 80.079437296258 2.5889542102814 331.6845703125 86 1 delete
09:59:39 60.370705 29.556946 6 80.820761025156 0 310.66128540039 86 1 delete
09:59:30 60.370705 29.556946 8 80.978387242138 0 310.66128540039 86 1 delete
09:59:18 60.370705 29.556946 8 80.888923033301 0 310.66128540039 86 1 delete
09:59:06 60.370705 29.556946 12 81.657485447797 0 310.66128540039 86 1 delete
09:58:54 60.370705 29.556946 6 82.617395655544 0 310.66128540039 86 1 delete
09:58:51 60.370675 29.557102 6 84.39161854119 5.9759764671326 326.39071655273 86 1 delete
09:58:48 60.370640 29.557321 6 84.963189141423 5.5064764022827 251.70477294922 86 1 delete
09:58:45 60.370754 29.557466 6 84.596843439937 7.3334765434265 170.65997314453 86 1 delete
09:58:42 60.370919 29.557250 8 83.2959455041 7.3965764045715 140.06578063965 86 1 delete
09:58:39 60.371089 29.557072 8 83.675017007205 7.3964796066284 185.37579345703 86 1 delete
09:58:36 60.371200 29.557161 8 83.513926933741 5.7694878578186 243.03033447266 86 1 delete
09:58:33 60.371163 29.557521 8 87.284849350039 6.8470139503479 312.18823242188 86 1 delete
09:58:30 60.371032 29.557839 8 90.176915226502 7.51677942276 314.06344604492 86 1 delete
09:58:27 60.370880 29.558122 6 91.476512493473 7.2973780632019 318.80422973633 86 1 delete
09:58:24 60.370653 29.558418 8 92.236496340905 5.0139169692993 325.99621582031 86 1 delete
09:58:21 60.370409 29.558537 8 92.156588449979 4.4284801483154 344.46987915039 86 1 delete
09:58:18 60.370212 29.558668 8 91.631858579047 3.9524598121643 340.00662231445 86 1 delete
09:58:15 60.370059 29.558651 8 90.411945425347 3.6930010318756 30.18039894104 86 1 delete
09:58:12 60.369874 29.558619 12 90.158298745958 3.3419103622437 335.84924316406 86 1 delete
09:58:09 60.369796 29.558657 8 90.079800515774 0 40.695911407471 86 1 delete
09:58:06 60.369741 29.558735 6 90.195935655819 3.8187069892883 335.83071899414 86 1 delete
09:58:03 60.369599 29.558841 8 90.935623989411 3.7554798126221 338.59097290039 86 1 delete
09:58:00 60.369512 29.558931 8 91.090718705252 3.8846354484558 329.2194519043 86 1 delete
09:57:57 60.369426 29.559037 8 92.170442383605 3.8819403648376 325.96221923828 86 1 delete
09:57:54 60.369333 29.559185 8 92.481354199583 3.9515380859375 10.437028884888 86 1 delete
09:57:51 60.369242 29.559321 12 94.303644922874 3.7429940700531 303.30850219727 86 1 delete
09:57:48 60.369166 29.559618 12 94.774797906251 3.2479572296143 300.76318359375 86 1 delete
09:57:45 60.369113 29.559744 8 95.875023384037 3.1417467594147 309.14801025391 86 1 delete
09:57:42 60.369002 29.559766 8 97.130853945771 2.7864747047424 14.709300041199 86 1 delete
09:57:39 60.368906 29.559738 8 97.595982122282 2.3159067630768 310.43161010742 86 1 delete
09:57:36 60.368853 29.559801 12 97.944772625542 2.1017656326294 317.39172363281 86 1 delete
09:57:33 60.368808 29.559858 8 97.974472293607 2.1224646568298 315.23013305664 86 1 delete
09:57:30 60.368757 29.559876 8 97.998224521479 0 313.77066040039 86 1 delete
09:57:27 60.368678 29.559904 6 97.570226207408 3.7719886302948 36.029205322266 86 1 delete
09:57:24 60.368583 29.559791 8 97.436488296463 3.805385351181 28.330364227295 86 1 delete
09:57:21 60.368470 29.559702 8 96.30385650927 3.8734333515167 46.389579772949 86 1 delete
09:57:18 60.368348 29.559592 8 96.52080966673 3.8762640953064 32.53178024292 86 1 delete
09:57:15 60.368218 29.559464 6 97.749475295481 3.6371142864227 27.039196014404 86 1 delete
09:57:12 60.368093 29.559336 8 98.699259883234 3.5901296138763 0.49330413341522 86 1 delete
09:57:09 60.367979 29.559304 8 98.859516959629 3.7578613758087 9.8398456573486 86 1 delete
09:57:06 60.367849 29.559209 8 98.874301613819 3.8120141029358 26.632665634155 86 1 delete
09:57:03 60.367692 29.559173 8 98.594423347292 3.8271586894989 355.73831176758 86 1 delete
09:57:00 60.367559 29.559170 8 98.279893930027 3.8664636611938 2.9616873264313 86 1 delete